createdAt,value
2022-11-14T00:03:36.454Z,0.77
2022-11-14T00:08:59.840Z,0.73
2022-11-14T00:14:22.551Z,0.70
2022-11-14T00:19:44.799Z,0.50
2022-11-14T00:25:08.842Z,0.77
2022-11-14T00:30:31.261Z,0.80
2022-11-14T00:35:54.530Z,0.83
2022-11-14T00:41:17.859Z,0.70
2022-11-14T00:46:39.822Z,0.60
2022-11-14T00:52:02.129Z,1.17
2022-11-14T00:57:25.579Z,1.10
2022-11-14T01:02:47.815Z,0.70
2022-11-14T01:08:09.891Z,0.83
2022-11-14T01:13:34.116Z,1.30
2022-11-14T01:18:56.377Z,0.63
2022-11-14T01:24:18.657Z,0.70
2022-11-14T01:29:41.857Z,0.73
2022-11-14T01:35:04.388Z,0.70
2022-11-14T01:40:27.187Z,1.10
2022-11-14T01:45:54.635Z,0.90
2022-11-14T01:51:26.358Z,1.07
2022-11-14T01:56:53.494Z,1.30
2022-11-14T02:02:19.156Z,1.30
2022-11-14T02:07:42.494Z,0.70
2022-11-14T02:13:04.893Z,0.70
2022-11-14T02:18:28.831Z,1.30
2022-11-14T02:23:52.582Z,0.73
2022-11-14T02:29:14.896Z,0.97
2022-11-14T02:34:37.241Z,0.97
2022-11-14T02:40:00.666Z,1.10
2022-11-14T02:45:23.042Z,0.83
2022-11-14T02:50:45.215Z,0.80
2022-11-14T02:56:08.777Z,0.87
2022-11-14T03:01:33.417Z,0.80
2022-11-14T03:06:55.861Z,0.77
2022-11-14T03:12:19.533Z,0.60
2022-11-14T03:17:41.489Z,0.70
2022-11-14T03:23:04.091Z,1.07
2022-11-14T03:28:27.626Z,0.60
2022-11-14T03:33:49.806Z,0.53
2022-11-14T03:39:11.764Z,0.47
2022-11-14T03:44:35.527Z,1.57
2022-11-14T03:49:57.440Z,0.63
2022-11-14T03:55:19.622Z,0.57
2022-11-14T04:00:43.166Z,1.13
2022-11-14T04:06:05.640Z,0.60
2022-11-14T04:11:27.854Z,0.90
2022-11-14T04:16:51.322Z,0.80
2022-11-14T04:22:13.693Z,0.63
2022-11-14T04:27:36.122Z,0.90
2022-11-14T04:32:59.627Z,0.87
2022-11-14T04:38:22.004Z,0.80
2022-11-14T04:43:49.552Z,0.70
2022-11-14T04:49:14.198Z,0.50
2022-11-14T04:54:36.125Z,0.80
2022-11-14T04:59:58.399Z,0.50
2022-11-14T05:05:21.785Z,0.70
2022-11-14T05:10:45.250Z,0.70
2022-11-14T05:16:07.572Z,0.90
2022-11-14T05:21:30.637Z,0.70
2022-11-14T05:26:52.865Z,0.67
2022-11-14T05:32:16.459Z,0.80
2022-11-14T05:37:39.888Z,0.60
2022-11-14T05:43:01.982Z,0.73
2022-11-14T05:48:23.857Z,1.10
2022-11-14T05:53:47.364Z,0.97
2022-11-14T05:59:09.471Z,0.90
2022-11-14T06:04:31.670Z,0.83
2022-11-14T06:09:54.869Z,0.70
2022-11-14T06:15:17.487Z,0.80
2022-11-14T06:20:39.614Z,1.07
2022-11-14T06:26:04.835Z,1.20
2022-11-14T06:31:27.379Z,1.40
2022-11-14T06:36:49.286Z,1.77
2022-11-14T06:42:12.770Z,2.17
2022-11-14T06:47:35.028Z,2.07
2022-11-14T06:52:59.045Z,3.37
2022-11-14T06:58:22.245Z,3.67
2022-11-14T07:03:45.457Z,3.80
2022-11-14T07:09:07.710Z,4.00
2022-11-14T07:14:31.235Z,3.20
2022-11-14T07:19:53.225Z,4.57
2022-11-14T07:25:15.559Z,5.97
2022-11-14T07:30:38.815Z,5.90
2022-11-14T07:36:01.367Z,5.13
2022-11-14T07:41:24.550Z,5.57
2022-11-14T07:46:50.036Z,6.90
2022-11-14T07:52:12.072Z,7.17
2022-11-14T07:57:40.303Z,8.83
2022-11-14T08:03:08.118Z,8.73
2022-11-14T08:08:30.775Z,5.93
2022-11-14T08:13:53.120Z,10.83
2022-11-14T08:19:17.508Z,11.73
2022-11-14T08:24:39.705Z,8.87
2022-11-14T08:30:01.903Z,10.10
2022-11-14T08:35:25.343Z,9.87
2022-11-14T08:40:47.591Z,9.13
2022-11-14T08:46:10.853Z,8.37
2022-11-14T08:51:36.430Z,10.30
2022-11-14T08:56:59.387Z,10.83
2022-11-14T09:02:21.673Z,10.10
2022-11-14T09:07:45.282Z,11.10
2022-11-14T09:13:07.604Z,11.33
2022-11-14T09:18:31.241Z,9.30
2022-11-14T09:24:00.405Z,10.47
2022-11-14T09:29:23.690Z,12.57
2022-11-14T09:34:45.794Z,9.60
2022-11-14T09:40:12.542Z,6.77
2022-11-14T09:45:38.981Z,9.87
2022-11-14T09:51:08.641Z,8.50
2022-11-14T09:56:32.418Z,6.20
2022-11-14T10:02:02.581Z,8.73
2022-11-14T10:07:35.080Z,8.97
2022-11-14T10:13:06.390Z,6.67
2022-11-14T10:18:43.877Z,5.90
2022-11-14T10:24:18.273Z,8.00
2022-11-14T10:30:07.610Z,9.33
2022-11-14T10:35:35.324Z,10.33
2022-11-14T10:41:01.761Z,9.47
2022-11-14T10:46:30.337Z,9.53
2022-11-14T10:51:56.249Z,11.20
2022-11-14T10:57:21.051Z,8.77
2022-11-14T11:02:53.131Z,11.70
2022-11-14T11:08:45.762Z,8.97
2022-11-14T11:14:18.774Z,8.00
2022-11-14T11:19:43.128Z,9.80
2022-11-14T11:25:25.373Z,9.33
2022-11-14T11:30:57.244Z,9.43
2022-11-14T11:36:24.158Z,7.37
2022-11-14T11:42:09.257Z,8.17
2022-11-14T11:47:34.104Z,12.37
2022-11-14T11:53:13.523Z,8.87
2022-11-14T11:58:44.259Z,9.40
2022-11-14T12:04:06.523Z,11.70
2022-11-14T12:10:08.326Z,10.13
2022-11-14T12:15:22.659Z,9.40
2022-11-14T12:20:58.067Z,9.83
2022-11-14T12:26:36.485Z,10.87
2022-11-14T12:32:07.216Z,8.53
2022-11-14T12:37:34.274Z,12.20
2022-11-14T12:42:59.565Z,9.63
2022-11-14T12:48:30.573Z,8.77
2022-11-14T12:53:53.409Z,9.97
2022-11-14T12:59:47.781Z,11.50
2022-11-14T13:05:34.052Z,6.87
2022-11-14T13:10:55.956Z,8.10
2022-11-14T13:16:44.511Z,8.23
2022-11-14T13:22:38.981Z,10.47
2022-11-14T13:28:47.863Z,8.67
2022-11-14T13:34:43.665Z,6.80
2022-11-14T13:40:15.437Z,10.93
2022-11-14T13:45:53.989Z,7.73
2022-11-14T13:51:42.254Z,9.20
2022-11-14T13:57:15.240Z,9.37
2022-11-14T14:02:58.406Z,8.87
2022-11-14T14:08:39.122Z,7.87
2022-11-14T14:14:15.086Z,8.33
2022-11-14T14:19:46.643Z,8.57
2022-11-14T14:25:19.893Z,9.07
2022-11-14T14:31:02.409Z,8.07
2022-11-14T14:36:27.971Z,7.17
2022-11-14T14:41:50.995Z,5.83
2022-11-14T14:47:42.036Z,6.60
2022-11-14T14:53:05.778Z,7.37
2022-11-14T14:58:30.616Z,6.63
2022-11-14T15:03:58.742Z,7.37
2022-11-14T15:09:23.628Z,5.87
2022-11-14T15:14:46.750Z,6.70
2022-11-14T15:20:22.130Z,6.90
2022-11-14T15:25:44.800Z,6.00
2022-11-14T15:31:08.413Z,7.57
2022-11-14T15:36:32.171Z,6.53
2022-11-14T15:42:13.606Z,8.60
2022-11-14T15:47:40.331Z,5.87
2022-11-14T15:53:06.885Z,7.83
2022-11-14T15:58:29.515Z,7.20
2022-11-14T16:03:51.815Z,5.47
2022-11-14T16:09:20.853Z,7.00
2022-11-14T16:14:45.235Z,6.63
2022-11-14T16:20:12.021Z,7.33
2022-11-14T16:25:36.324Z,6.80
2022-11-14T16:30:59.575Z,6.10
2022-11-14T16:36:23.417Z,11.10
2022-11-14T16:41:47.119Z,9.60
2022-11-14T16:47:09.040Z,7.80
2022-11-14T16:52:31.016Z,8.23
2022-11-14T16:57:55.103Z,6.50
2022-11-14T17:03:18.119Z,6.33
2022-11-14T17:08:40.400Z,5.47
2022-11-14T17:14:04.073Z,7.60
2022-11-14T17:19:26.021Z,6.53
2022-11-14T17:24:48.207Z,6.87
2022-11-14T17:30:13.512Z,5.37
2022-11-14T17:35:36.718Z,5.40
2022-11-14T17:40:58.916Z,5.63
2022-11-14T17:46:22.357Z,6.77
2022-11-14T17:51:44.386Z,5.90
2022-11-14T17:57:06.763Z,6.07
2022-11-14T18:02:30.153Z,5.63
2022-11-14T18:07:52.259Z,5.97
2022-11-14T18:13:14.477Z,6.40
2022-11-14T18:18:38.460Z,5.50
2022-11-14T18:24:01.317Z,5.57
2022-11-14T18:29:23.575Z,5.80
2022-11-14T18:34:47.202Z,6.83
2022-11-14T18:40:16.144Z,4.83
2022-11-14T18:45:39.110Z,5.20
2022-11-14T18:51:06.979Z,6.57
2022-11-14T18:56:28.889Z,5.33
2022-11-14T19:01:51.717Z,3.90
2022-11-14T19:07:15.301Z,3.67
2022-11-14T19:12:37.857Z,4.13
2022-11-14T19:18:00.032Z,4.10
2022-11-14T19:23:23.590Z,4.27
2022-11-14T19:28:45.565Z,4.40
2022-11-14T19:34:08.003Z,5.20
2022-11-14T19:39:32.805Z,4.40
2022-11-14T19:44:54.779Z,7.70
2022-11-14T19:50:17.182Z,5.23
2022-11-14T19:55:40.328Z,5.47
2022-11-14T20:01:03.271Z,5.00
2022-11-14T20:06:27.095Z,5.00
2022-11-14T20:11:50.521Z,6.57
2022-11-14T20:17:12.744Z,3.73
2022-11-14T20:22:35.016Z,5.10
2022-11-14T20:27:58.662Z,4.00
2022-11-14T20:33:20.737Z,4.00
2022-11-14T20:38:44.172Z,5.17
2022-11-14T20:44:07.824Z,4.50
2022-11-14T20:49:29.840Z,4.10
2022-11-14T20:54:52.289Z,4.67
2022-11-14T21:00:16.818Z,3.47
2022-11-14T21:05:40.018Z,5.30
2022-11-14T21:11:04.096Z,5.37
2022-11-14T21:16:31.749Z,3.87
2022-11-14T21:21:54.058Z,4.50
2022-11-14T21:27:16.310Z,2.97
2022-11-14T21:32:39.974Z,3.83
2022-11-14T21:38:02.222Z,3.23
2022-11-14T21:43:24.736Z,4.07
2022-11-14T21:48:49.945Z,3.40
2022-11-14T21:54:12.268Z,3.60
2022-11-14T21:59:34.360Z,2.63
2022-11-14T22:04:57.976Z,3.23
2022-11-14T22:10:20.178Z,3.33
2022-11-14T22:15:42.210Z,4.37
2022-11-14T22:21:06.008Z,3.37
2022-11-14T22:26:28.294Z,3.03
2022-11-14T22:31:52.752Z,3.00
2022-11-14T22:37:15.950Z,3.00
2022-11-14T22:42:38.057Z,3.90
2022-11-14T22:48:00.473Z,3.97
2022-11-14T22:53:23.647Z,2.83
2022-11-14T22:58:46.509Z,2.80
2022-11-14T23:04:10.033Z,3.63
2022-11-14T23:09:33.826Z,3.00
2022-11-14T23:14:55.992Z,2.30
2022-11-14T23:20:18.424Z,2.80
2022-11-14T23:25:41.620Z,2.20
2022-11-14T23:31:04.025Z,2.20
2022-11-14T23:36:26.536Z,2.03
2022-11-14T23:41:50.383Z,2.30
2022-11-14T23:47:12.676Z,1.60
2022-11-14T23:52:34.766Z,1.57
2022-11-14T23:57:58.421Z,2.10
